In Rescue
 
Open Full Screen Window  High Contrast Mode
January 29, 2020 3:36 AM CST
Weather Information
Wind Direction
  ---
Wind Speed
  00 kt (0 mph)
Wind Gust
  00 kt (0 mph)
Altimeter
30.20 in
Visibility
10 SM
Temperature
-07° C
19° F
Dewpoint
-09° C
16° F
Humidity
86%
1hr Rain Fall
00.00 in.
24hr Rain Fall
00.00 in.
Sky Condition
Overcast @ 1,400 ft
MVFR

METAR KONA 290936Z AUTO 00000KT 10SM OVC014 M07/M09 A3020 RMK AO2

FAA Disclaimer: The data displayed is for advisory purposes only and is not to be used for flight planning or operations.